Time;durP1;ratioP1;P1;durP2;ratioP2;P2;SDS_P1;SDS_P2;PMS_P1;PMS_P2;Temp;Humidity;BMP_temperature;BMP_pressure;BME280_temperature;BME280_humidity;BME280_pressure;Samples;Min_cycle;Max_cycle;Signal;HPM_P1;HPM_P2
2022/10/17 00:00:48;;;;;;;7.82;5.03;;;13.00;99.90;;;;;;5052391;28;20119;-82
2022/10/17 00:03:15;;;;;;;5.82;4.47;;;13.00;99.90;;;;;;5068754;28;20080;-81
2022/10/17 00:05:46;;;;;;;8.50;4.47;;;13.50;99.90;;;;;;5069037;28;20072;-81
2022/10/17 00:08:14;;;;;;;8.55;4.70;;;12.90;99.90;;;;;;5052093;28;20112;-82
2022/10/17 00:10:40;;;;;;;7.22;4.40;;;13.10;99.90;;;;;;5068660;28;20049;-84
2022/10/17 00:13:07;;;;;;;6.63;3.90;;;13.00;99.90;;;;;;5068788;28;20137;-82
2022/10/17 00:15:32;;;;;;;;;;;13.40;99.90;;;;;;5052751;28;20044;-85
2022/10/17 00:17:58;;;;;;;8.07;4.25;;;13.00;99.90;;;;;;5068646;28;20258;-81
2022/10/17 00:20:24;;;;;;;8.25;4.68;;;13.00;99.90;;;;;;5071284;28;20056;-80
2022/10/17 00:22:50;;;;;;;8.63;4.82;;;13.00;99.90;;;;;;5062329;28;20049;-84
2022/10/17 00:25:16;;;;;;;8.50;4.18;;;13.00;99.90;;;;;;5069011;28;20094;-83
2022/10/17 00:27:41;;;;;;;7.23;4.57;;;13.00;99.90;;;;;;5053134;28;20049;-83
2022/10/17 00:30:11;;;;;;;7.35;4.10;;;13.10;99.90;;;;;;5054844;28;20401;-83
2022/10/17 00:32:37;;;;;;;8.20;3.92;;;13.00;99.90;;;;;;5072015;28;20041;-85
2022/10/17 00:35:03;;;;;;;5.93;4.13;;;13.00;99.90;;;;;;5057015;28;20120;-80
2022/10/17 00:37:30;;;;;;;7.43;4.00;;;13.00;99.90;;;;;;5072889;28;20393;-82
2022/10/17 00:39:56;;;;;;;5.50;4.10;;;13.00;99.90;;;;;;5072042;28;20059;-81
2022/10/17 00:42:23;;;;;;;5.47;3.87;;;13.00;99.90;;;;;;5055660;28;20131;-82
2022/10/17 00:44:49;;;;;;;5.82;3.90;;;13.00;99.90;;;;;;5038844;28;20540;-83
2022/10/17 00:47:18;;;;;;;6.50;4.43;;;13.00;99.90;;;;;;5071889;28;20136;-83
2022/10/17 00:49:44;;;;;;;6.85;3.60;;;13.00;99.90;;;;;;5056370;28;20045;-82
2022/10/17 00:52:23;;;;;;;5.47;4.20;;;13.00;99.90;;;;;;5056563;28;20040;-83
2022/10/17 00:54:57;;;;;;;6.13;3.97;;;13.00;99.90;;;;;;5055363;28;20094;-84
2022/10/17 00:57:23;;;;;;;8.40;4.13;;;13.30;99.90;;;;;;5071522;28;20489;-84
2022/10/17 00:59:54;;;;;;;7.22;4.60;;;13.00;99.90;;;;;;5056095;28;20041;-81
2022/10/17 01:02:21;;;;;;;7.75;4.72;;;13.60;99.90;;;;;;5039264;28;20136;-81
2022/10/17 01:04:49;;;;;;;7.60;5.00;;;13.00;99.90;;;;;;5071498;28;20045;-80
2022/10/17 01:07:16;;;;;;;9.18;5.57;;;13.00;99.90;;;;;;5055413;28;20037;-84
2022/10/17 01:09:43;;;;;;;10.55;5.82;;;13.10;99.90;;;;;;5056191;28;20044;-81
2022/10/17 01:12:46;;;;;;;6.03;5.00;;;13.10;99.90;;;;;;5055887;28;20045;-82
2022/10/17 01:15:12;;;;;;;6.85;5.57;;;13.10;99.90;;;;;;5071371;28;20040;-82
2022/10/17 01:18:13;;;;;;;7.90;5.40;;;13.10;99.90;;;;;;5071550;28;20070;-84
2022/10/17 01:21:06;;;;;;;7.93;5.25;;;13.10;99.90;;;;;;5054391;28;20487;-82
2022/10/17 01:23:47;;;;;;;9.00;5.45;;;13.00;99.90;;;;;;5079199;28;20041;-81
2022/10/17 01:26:25;;;;;;;6.70;5.07;;;13.00;99.90;;;;;;5055736;28;20397;-82
2022/10/17 01:28:50;;;;;;;8.75;5.68;;;13.10;99.90;;;;;;5071533;28;20045;-83
2022/10/17 01:31:21;;;;;;;8.40;5.78;;;12.90;99.90;;;;;;5054914;28;20099;-81
2022/10/17 01:33:46;;;;;;;7.85;5.35;;;12.90;99.90;;;;;;5056005;28;20041;-84
2022/10/17 01:36:29;;;;;;;10.07;4.90;;;12.90;99.90;;;;;;5055460;28;20047;-81
2022/10/17 01:39:04;;;;;;;7.38;5.05;;;12.90;99.90;;;;;;5055345;28;20484;-82
2022/10/17 01:41:36;;;;;;;6.28;4.95;;;12.80;99.90;;;;;;5054336;28;20048;-82
2022/10/17 01:44:16;;;;;;;6.00;5.40;;;12.80;99.90;;;;;;5055402;28;20041;-84
2022/10/17 01:47:06;;;;;;;10.82;5.80;;;12.80;99.90;;;;;;5070767;28;20064;-84
2022/10/17 01:49:35;;;;;;;10.73;6.45;;;12.80;99.90;;;;;;5038145;28;20124;-81
2022/10/17 01:52:07;;;;;;;6.85;5.75;;;12.70;99.90;;;;;;5055150;28;20037;-81
2022/10/17 01:54:39;;;;;;;9.30;6.88;;;12.80;99.90;;;;;;5070749;28;20041;-82
2022/10/17 01:57:09;;;;;;;11.60;6.82;;;12.70;99.90;;;;;;5055408;28;20084;-80
2022/10/17 01:59:39;;;;;;;9.43;6.97;;;13.20;99.90;;;;;;5054974;28;20041;-82
2022/10/17 02:02:06;;;;;;;9.23;6.30;;;13.10;99.90;;;;;;5055209;28;20103;-80
2022/10/17 02:04:33;;;;;;;8.27;7.38;;;12.70;99.90;;;;;;5055012;28;20119;-81
2022/10/17 02:07:08;;;;;;;10.25;6.78;;;12.60;99.90;;;;;;5053755;28;20384;-83
2022/10/17 02:09:35;;;;;;;9.95;6.97;;;12.60;99.90;;;;;;5054890;28;20134;-82
2022/10/17 02:12:19;;;;;;;9.32;7.32;;;12.90;99.90;;;;;;5070418;28;20477;-84
2022/10/17 02:15:19;;;;;;;9.63;6.72;;;12.60;99.90;;;;;;5054827;28;20053;-82
2022/10/17 02:18:07;;;;;;;9.75;7.70;;;12.60;99.90;;;;;;5053159;28;20053;-83
2022/10/17 02:20:44;;;;;;;10.10;7.55;;;12.60;99.90;;;;;;5054696;28;20049;-81
2022/10/17 02:23:13;;;;;;;11.65;7.95;;;12.60;99.90;;;;;;5071084;28;20473;-80
2022/10/17 02:25:41;;;;;;;10.95;7.43;;;12.90;99.90;;;;;;5060282;28;20041;-84
2022/10/17 02:28:15;;;;;;;9.77;8.15;;;12.60;99.90;;;;;;5054582;28;20049;-82
2022/10/17 02:30:49;;;;;;;10.07;7.38;;;12.60;99.90;;;;;;5053704;28;20045;-84
2022/10/17 02:33:29;;;;;;;12.90;7.40;;;12.60;99.90;;;;;;5054550;28;20045;-82
2022/10/17 02:36:03;;;;;;;10.27;7.68;;;12.60;99.90;;;;;;5054019;28;20478;-81
2022/10/17 02:38:30;;;;;;;11.98;7.35;;;12.50;99.90;;;;;;5054350;28;20045;-82
2022/10/17 02:40:56;;;;;;;8.45;7.13;;;12.60;99.90;;;;;;5054289;28;20057;-80
2022/10/17 02:43:23;;;;;;;7.30;6.57;;;12.60;99.90;;;;;;5054347;28;20041;-83
2022/10/17 02:45:50;;;;;;;11.10;7.65;;;12.60;99.90;;;;;;5069622;28;20055;-82
2022/10/17 02:48:29;;;;;;;8.65;7.40;;;12.70;99.90;;;;;;5054135;28;20134;-82
2022/10/17 02:51:26;;;;;;;8.98;7.75;;;12.60;99.90;;;;;;5054157;28;20090;-84
2022/10/17 02:54:04;;;;;;;11.18;7.82;;;12.60;99.90;;;;;;5054088;28;20045;-81
2022/10/17 02:56:36;;;;;;;11.00;7.60;;;12.60;99.90;;;;;;5054035;28;20041;-82
2022/10/17 02:59:04;;;;;;;9.02;8.05;;;12.60;99.90;;;;;;5069295;28;20140;-84
2022/10/17 03:01:30;;;;;;;9.45;8.07;;;12.30;99.90;;;;;;5053946;28;20516;-83
2022/10/17 03:04:14;;;;;;;9.60;8.20;;;13.20;99.90;;;;;;5053939;28;20091;-82
2022/10/17 03:06:40;;;;;;;9.35;7.45;;;12.60;99.90;;;;;;5054030;28;20397;-81
2022/10/17 03:09:07;;;;;;;8.77;7.53;;;12.60;99.90;;;;;;5069602;28;20045;-81
2022/10/17 03:11:33;;;;;;;11.52;7.72;;;12.40;99.90;;;;;;5053629;28;20048;-82
2022/10/17 03:13:58;;;;;;;8.45;7.43;;;12.60;99.90;;;;;;5054255;28;20052;-82
2022/10/17 03:16:24;;;;;;;14.90;9.00;;;12.10;99.90;;;;;;5069843;28;20041;-81
2022/10/17 03:18:49;;;;;;;9.30;8.30;;;12.60;99.90;;;;;;5053728;28;20045;-83
2022/10/17 03:21:15;;;;;;;9.93;7.97;;;12.60;99.90;;;;;;5053848;28;20043;-82
2022/10/17 03:23:41;;;;;;;10.13;8.77;;;12.60;99.90;;;;;;5070271;28;20041;-81
2022/10/17 03:26:07;;;;;;;14.77;8.48;;;12.60;99.90;;;;;;5060604;28;20051;-80
2022/10/17 03:28:33;;;;;;;11.75;8.07;;;12.70;99.90;;;;;;5074813;28;20114;-82
2022/10/17 03:30:59;;;;;;;9.47;8.50;;;12.70;99.90;;;;;;5053610;28;20473;-81
2022/10/17 03:33:24;;;;;;;11.85;9.10;;;12.70;99.90;;;;;;5053666;28;20052;-80
2022/10/17 03:35:50;;;;;;;10.52;8.70;;;12.70;99.90;;;;;;5053514;28;20033;-81
2022/10/17 03:38:15;;;;;;;10.73;9.10;;;12.70;99.90;;;;;;5053536;28;20056;-84
2022/10/17 03:40:41;;;;;;;10.50;8.90;;;12.70;99.90;;;;;;5053216;28;20057;-80
2022/10/17 03:43:07;;;;;;;11.55;9.52;;;12.70;99.90;;;;;;5052324;28;20051;-82
2022/10/17 03:45:32;;;;;;;10.02;8.45;;;12.80;99.90;;;;;;5053306;28;20052;-80
2022/10/17 03:47:58;;;;;;;11.43;9.80;;;12.80;99.90;;;;;;5069269;28;20041;-83
2022/10/17 03:50:24;;;;;;;11.02;9.93;;;12.80;99.90;;;;;;5053695;28;20045;-83
2022/10/17 03:52:50;;;;;;;14.35;9.55;;;12.80;99.90;;;;;;5053479;28;20052;-83
2022/10/17 03:55:16;;;;;;;14.23;9.80;;;12.80;99.90;;;;;;5053227;28;20488;-80
2022/10/17 03:57:42;;;;;;;12.27;10.18;;;12.80;99.90;;;;;;5053394;28;20052;-82
2022/10/17 04:00:08;;;;;;;12.70;10.90;;;12.80;99.90;;;;;;5053353;28;20477;-81
2022/10/17 04:02:34;;;;;;;12.20;11.00;;;12.80;99.90;;;;;;5051877;28;20067;-82
2022/10/17 04:05:00;;;;;;;12.00;8.80;;;12.80;99.90;;;;;;5054965;28;20049;-83
2022/10/17 04:07:26;;;;;;;15.00;9.77;;;12.80;99.90;;;;;;5056245;28;20045;-81
2022/10/17 04:09:51;;;;;;;12.13;10.85;;;12.80;99.90;;;;;;5057026;28;20507;-83
2022/10/17 04:12:17;;;;;;;12.98;11.13;;;12.80;99.90;;;;;;5057487;28;20484;-82
2022/10/17 04:14:43;;;;;;;18.08;11.20;;;12.80;99.90;;;;;;5056886;28;20048;-81
2022/10/17 04:17:09;;;;;;;13.43;10.98;;;12.80;99.90;;;;;;5055770;28;20121;-83
2022/10/17 04:19:35;;;;;;;12.88;11.50;;;13.00;99.90;;;;;;5055933;28;20053;-84
2022/10/17 04:22:02;;;;;;;15.25;13.02;;;12.80;99.90;;;;;;5056914;28;20499;-81
2022/10/17 04:24:27;;;;;;;;;;;12.70;99.90;;;;;;5057254;28;20051;-80
2022/10/17 04:26:53;;;;;;;15.73;13.00;;;12.80;99.90;;;;;;5060910;28;20031;-82
2022/10/17 04:29:19;;;;;;;15.50;13.00;;;12.70;99.90;;;;;;5059225;28;20528;-80
2022/10/17 04:31:45;;;;;;;13.90;12.43;;;13.00;99.90;;;;;;5055443;28;20496;-81
2022/10/17 04:34:13;;;;;;;16.27;12.05;;;12.70;99.90;;;;;;5039587;28;20055;-81
2022/10/17 04:36:39;;;;;;;16.95;13.00;;;12.70;99.90;;;;;;5055355;28;20067;-81
2022/10/17 04:39:04;;;;;;;20.27;14.37;;;13.30;99.90;;;;;;5056715;28;20049;-81
2022/10/17 04:41:30;;;;;;;15.57;13.93;;;12.70;99.90;;;;;;5056644;28;20041;-81
2022/10/17 04:43:56;;;;;;;18.77;15.07;;;12.70;99.90;;;;;;5055596;28;20041;-83
2022/10/17 04:46:22;;;;;;;17.13;14.97;;;12.70;99.90;;;;;;5057014;28;20481;-81
2022/10/17 04:48:48;;;;;;;17.80;15.40;;;12.70;99.90;;;;;;5056469;28;20090;-82
2022/10/17 04:51:16;;;;;;;17.67;15.10;;;12.70;99.90;;;;;;5056385;28;20052;-81
2022/10/17 04:53:43;;;;;;;21.10;16.23;;;12.60;99.90;;;;;;5056358;28;20124;-81
2022/10/17 04:56:09;;;;;;;19.13;15.68;;;13.20;99.90;;;;;;5056088;28;20048;-85
2022/10/17 04:58:36;;;;;;;17.42;14.50;;;12.70;99.90;;;;;;5055467;28;20123;-81
2022/10/17 05:01:09;;;;;;;20.70;15.65;;;12.70;99.90;;;;;;5056236;28;20124;-79
2022/10/17 05:03:36;;;;;;;19.70;17.33;;;12.70;99.90;;;;;;5056095;28;20098;-80
2022/10/17 05:06:10;;;;;;;21.85;17.92;;;12.70;99.90;;;;;;5056142;28;20056;-80
2022/10/17 05:08:36;;;;;;;20.63;17.08;;;12.70;99.90;;;;;;5056090;28;20122;-86
2022/10/17 05:11:02;;;;;;;22.70;20.03;;;12.70;99.90;;;;;;5056031;28;20037;-85
2022/10/17 05:13:28;;;;;;;23.95;19.25;;;12.70;99.90;;;;;;5055125;28;20048;-84
2022/10/17 05:15:58;;;;;;;20.60;17.10;;;12.70;99.90;;;;;;5038070;28;20468;-83
2022/10/17 05:18:24;;;;;;;20.85;16.30;;;12.80;99.90;;;;;;5055948;28;20041;-84
2022/10/17 05:20:49;;;;;;;20.50;18.03;;;12.70;99.90;;;;;;5055907;28;20087;-81
2022/10/17 05:23:15;;;;;;;24.67;16.90;;;12.80;99.90;;;;;;5055480;28;20037;-82
2022/10/17 05:25:41;;;;;;;19.88;15.98;;;13.20;99.90;;;;;;5056209;28;20044;-83
2022/10/17 05:28:07;;;;;;;23.67;18.95;;;12.80;99.90;;;;;;5057797;28;20045;-81
2022/10/17 05:30:34;;;;;;;21.38;17.38;;;12.80;99.90;;;;;;5058752;28;20049;-84
2022/10/17 05:32:59;;;;;;;19.70;16.08;;;12.80;99.90;;;;;;5038269;28;20049;-82
2022/10/17 05:35:25;;;;;;;20.70;16.77;;;13.00;99.90;;;;;;5054392;28;20044;-83
2022/10/17 05:37:50;;;;;;;22.85;18.52;;;13.30;99.90;;;;;;5054445;28;20051;-85
2022/10/17 05:40:16;;;;;;;22.02;18.08;;;13.10;99.90;;;;;;5054270;28;20037;-85
2022/10/17 05:42:47;;;;;;;22.70;18.02;;;13.00;99.90;;;;;;5055448;28;20049;-84
2022/10/17 05:45:13;;;;;;;20.02;17.00;;;13.60;99.90;;;;;;5055459;28;20083;-86
2022/10/17 05:47:39;;;;;;;20.35;18.23;;;13.00;99.90;;;;;;5055443;28;20048;-84
2022/10/17 05:50:05;;;;;;;19.70;17.42;;;13.30;99.90;;;;;;5038016;28;20136;-86
2022/10/17 05:52:30;;;;;;;20.00;17.13;;;13.00;99.90;;;;;;5037527;28;20084;-83
2022/10/17 05:54:56;;;;;;;18.27;16.13;;;13.10;99.90;;;;;;5053989;28;20520;-80
2022/10/17 05:57:24;;;;;;;22.13;17.27;;;13.10;99.90;;;;;;5037685;28;20045;-81
2022/10/17 05:59:50;;;;;;;20.60;17.67;;;13.10;99.90;;;;;;5054942;28;20052;-81
2022/10/17 06:02:15;;;;;;;22.57;16.93;;;13.10;99.90;;;;;;5037601;28;20374;-82
2022/10/17 06:04:44;;;;;;;19.13;17.20;;;13.10;99.90;;;;;;5054073;28;20051;-82
2022/10/17 06:07:11;;;;;;;17.17;15.07;;;13.00;99.90;;;;;;5053670;28;20045;-82
2022/10/17 06:09:36;;;;;;;21.23;16.80;;;13.20;99.90;;;;;;5053603;28;20087;-85
2022/10/17 06:12:02;;;;;;;19.10;15.93;;;13.20;99.90;;;;;;5053850;28;20041;-85
2022/10/17 06:14:28;;;;;;;19.83;16.60;;;13.40;99.90;;;;;;5053780;28;20037;-86
2022/10/17 06:16:53;;;;;;;18.77;16.77;;;13.20;99.90;;;;;;5054607;28;20120;-82
2022/10/17 06:19:19;;;;;;;18.73;16.67;;;13.30;99.90;;;;;;5054607;28;20052;-85
2022/10/17 06:21:44;;;;;;;20.43;15.97;;;13.20;99.90;;;;;;5053326;28;20445;-83
2022/10/17 06:24:10;;;;;;;20.10;16.40;;;14.20;99.90;;;;;;5053837;28;20045;-85
2022/10/17 06:26:36;;;;;;;18.37;15.30;;;13.30;99.90;;;;;;5036755;28;20067;-79
2022/10/17 06:29:01;;;;;;;18.77;14.90;;;13.40;99.90;;;;;;5052640;28;20389;-81
2022/10/17 06:31:27;;;;;;;21.00;15.65;;;13.50;99.90;;;;;;5054117;28;20057;-79
2022/10/17 06:33:52;;;;;;;20.77;17.10;;;13.40;99.90;;;;;;5054441;28;20041;-79
2022/10/17 06:36:18;;;;;;;17.05;15.25;;;13.50;99.90;;;;;;5054168;28;20041;-81
2022/10/17 06:38:43;;;;;;;17.27;15.07;;;13.50;99.90;;;;;;5054682;28;20033;-80
2022/10/17 06:41:13;;;;;;;16.93;14.90;;;13.50;99.90;;;;;;5053221;28;20051;-84
2022/10/17 06:43:39;;;;;;;16.30;14.40;;;13.40;99.90;;;;;;5053174;28;20098;-86
2022/10/17 06:46:05;;;;;;;;;;;13.60;99.90;;;;;;5073648;28;20131;-82
2022/10/17 06:48:31;;;;;;;19.40;13.60;;;13.60;99.90;;;;;;5073032;28;20019;-81
2022/10/17 06:51:01;;;;;;;17.92;14.75;;;13.60;99.90;;;;;;5056314;28;20542;-80
2022/10/17 06:53:31;;;;;;;18.13;15.20;;;13.50;99.90;;;;;;5072415;28;20392;-81
2022/10/17 06:56:01;;;;;;;16.90;13.82;;;13.70;99.90;;;;;;5073525;28;20044;-81
2022/10/17 06:58:29;;;;;;;17.65;13.63;;;13.70;99.90;;;;;;5072737;28;20051;-80
2022/10/17 07:01:04;;;;;;;17.90;14.02;;;13.40;99.90;;;;;;5072762;28;20135;-80
2022/10/17 07:03:30;;;;;;;16.13;14.07;;;13.80;99.90;;;;;;5073617;28;20044;-78
2022/10/17 07:05:56;;;;;;;15.93;13.97;;;13.90;99.90;;;;;;5073394;28;20044;-82
2022/10/17 07:08:22;;;;;;;15.57;13.40;;;14.50;99.90;;;;;;5072956;28;20052;-82
2022/10/17 07:10:48;;;;;;;15.05;13.38;;;14.00;99.90;;;;;;5056171;28;20361;-79
2022/10/17 07:13:14;;;;;;;19.38;13.32;;;14.50;99.90;;;;;;5073987;28;20469;-80
2022/10/17 07:15:40;;;;;;;15.43;12.75;;;14.20;99.90;;;;;;5056120;28;20476;-82
2022/10/17 07:18:06;;;;;;;15.80;12.85;;;14.20;99.90;;;;;;5074110;28;20036;-82
2022/10/17 07:20:31;;;;;;;15.05;12.85;;;14.30;99.90;;;;;;5073015;28;20048;-81
2022/10/17 07:22:57;;;;;;;17.27;12.43;;;14.30;99.90;;;;;;5073004;28;20052;-80
2022/10/17 07:25:23;;;;;;;14.60;12.20;;;15.00;99.90;;;;;;5073210;28;20044;-81
2022/10/17 07:27:49;;;;;;;13.00;11.70;;;14.50;99.90;;;;;;5073236;28;20135;-79
2022/10/17 07:30:15;;;;;;;13.35;11.95;;;15.00;99.90;;;;;;5072754;28;20500;-79
2022/10/17 07:32:42;;;;;;;15.15;11.40;;;14.70;99.90;;;;;;5055741;28;20115;-79
2022/10/17 07:35:08;;;;;;;14.80;12.35;;;14.60;99.90;;;;;;5072122;28;20057;-77
2022/10/17 07:37:34;;;;;;;12.43;10.77;;;15.00;99.90;;;;;;5072706;28;20491;-77
2022/10/17 07:39:59;;;;;;;14.82;10.05;;;15.20;99.90;;;;;;5074790;28;20279;-77
2022/10/17 07:42:26;;;;;;;14.98;10.27;;;15.30;99.90;;;;;;5077767;28;20043;-78
2022/10/17 07:44:52;;;;;;;;;;;15.50;99.90;;;;;;5077998;28;20056;-78
2022/10/17 07:47:17;;;;;;;11.40;8.32;;;15.60;99.90;;;;;;5075907;28;20451;-77
2022/10/17 07:49:44;;;;;;;8.83;7.80;;;15.80;99.90;;;;;;5076221;28;20048;-78
2022/10/17 07:52:14;;;;;;;9.05;7.68;;;16.10;99.90;;;;;;5077464;28;20052;-78
2022/10/17 07:54:40;;;;;;;14.90;7.15;;;16.00;99.90;;;;;;5076865;28;20056;-78
2022/10/17 07:57:06;;;;;;;8.33;7.00;;;16.30;99.90;;;;;;5077043;28;20032;-79
2022/10/17 07:59:32;;;;;;;12.53;6.87;;;16.30;99.90;;;;;;5076338;28;20036;-80
2022/10/17 08:01:58;;;;;;;8.75;6.90;;;16.40;99.90;;;;;;5076260;28;20045;-78
2022/10/17 08:04:25;;;;;;;8.23;6.40;;;16.50;99.90;;;;;;5076388;28;20052;-79
2022/10/17 08:06:51;;;;;;;8.63;6.60;;;16.60;99.90;;;;;;5076020;28;20094;-80
2022/10/17 08:09:16;;;;;;;7.80;6.30;;;16.50;99.90;;;;;;5077244;28;20040;-79
2022/10/17 08:11:45;;;;;;;6.93;5.93;;;16.60;99.90;;;;;;5078017;28;20072;-78
2022/10/17 08:14:12;;;;;;;10.45;6.72;;;16.60;99.90;;;;;;5076643;28;20548;-79
2022/10/17 08:16:39;;;;;;;12.25;6.68;;;16.50;99.90;;;;;;5075170;28;20049;-79
2022/10/17 08:19:04;;;;;;;;;;;16.60;99.90;;;;;;5076616;28;20544;-81
2022/10/17 08:21:30;;;;;;;9.60;6.60;;;16.60;99.90;;;;;;5066277;28;20000;-80
2022/10/17 08:23:56;;;;;;;9.50;6.50;;;17.30;99.90;;;;;;5056698;28;20124;-80
2022/10/17 08:26:22;;;;;;;10.13;6.80;;;16.70;99.90;;;;;;5055193;28;20492;-83
2022/10/17 08:28:48;;;;;;;8.57;6.60;;;17.30;99.90;;;;;;5041048;28;20078;-79
2022/10/17 08:31:19;;;;;;;9.02;6.40;;;16.80;99.90;;;;;;5074503;28;20458;-80
2022/10/17 08:33:46;;;;;;;10.50;6.32;;;16.40;99.90;;;;;;5076876;28;20036;-78
2022/10/17 08:36:13;;;;;;;13.52;6.85;;;16.80;99.90;;;;;;5076421;28;20477;-79
2022/10/17 08:38:41;;;;;;;9.85;6.10;;;16.80;99.90;;;;;;5076495;28;20040;-76
2022/10/17 08:41:42;;;;;;;12.05;6.40;;;16.80;99.90;;;;;;5076702;28;20052;-76
2022/10/17 08:44:24;;;;;;;8.98;5.70;;;16.90;99.90;;;;;;5074768;28;20059;-76
2022/10/17 08:46:55;;;;;;;8.63;6.35;;;16.80;99.90;;;;;;5076417;28;20465;-76
2022/10/17 08:49:36;;;;;;;7.43;5.85;;;16.80;99.90;;;;;;5075318;28;20123;-78
2022/10/17 08:52:15;;;;;;;8.77;5.93;;;16.80;99.90;;;;;;5075743;28;20040;-77
2022/10/17 08:54:44;;;;;;;10.65;6.20;;;16.90;99.90;;;;;;5076213;28;20127;-76
2022/10/17 08:57:15;;;;;;;9.60;6.32;;;16.90;99.90;;;;;;5076167;28;20083;-77
2022/10/17 08:59:49;;;;;;;11.10;6.07;;;16.90;99.90;;;;;;5076482;28;20036;-81
2022/10/17 09:02:38;;;;;;;10.93;6.55;;;17.00;99.90;;;;;;5076113;28;20420;-76
2022/10/17 09:05:29;;;;;;;11.98;6.40;;;17.00;99.90;;;;;;5076160;28;20041;-76
2022/10/17 09:08:03;;;;;;;8.93;5.75;;;17.00;99.90;;;;;;5076198;28;20076;-76
2022/10/17 09:10:47;;;;;;;10.02;6.50;;;17.00;99.90;;;;;;5076078;28;20440;-76
2022/10/17 09:13:30;;;;;;;10.52;6.30;;;17.00;99.90;;;;;;5076017;28;20052;-78
2022/10/17 09:16:09;;;;;;;10.00;6.45;;;17.10;99.90;;;;;;5076304;28;20045;-78
2022/10/17 09:18:44;;;;;;;8.35;6.00;;;17.10;99.90;;;;;;5075819;28;20047;-77
2022/10/17 09:21:42;;;;;;;9.07;6.05;;;17.20;99.90;;;;;;5075820;28;20477;-76
2022/10/17 09:24:17;;;;;;;9.38;6.22;;;17.00;99.90;;;;;;5071385;28;20060;-78
2022/10/17 09:26:45;;;;;;;9.25;6.45;;;17.20;99.90;;;;;;5075820;28;20469;-78
2022/10/17 09:29:23;;;;;;;11.02;6.75;;;17.20;99.90;;;;;;5075695;28;20036;-77
2022/10/17 09:32:03;;;;;;;9.45;6.35;;;17.20;99.90;;;;;;5075627;28;20488;-77
2022/10/17 09:34:31;;;;;;;10.07;6.50;;;17.20;99.90;;;;;;5075663;28;20044;-76
2022/10/17 09:37:01;;;;;;;10.07;6.40;;;17.50;99.90;;;;;;5075443;28;20048;-77
2022/10/17 09:39:30;;;;;;;9.00;6.20;;;17.40;99.90;;;;;;5075486;28;20094;-79
2022/10/17 09:41:59;;;;;;;12.27;6.32;;;17.50;99.90;;;;;;5075208;28;20041;-78
2022/10/17 09:44:30;;;;;;;8.65;6.03;;;17.20;99.90;;;;;;5074142;28;20087;-77
2022/10/17 09:47:18;;;;;;;7.80;5.80;;;17.50;99.90;;;;;;5068459;28;20044;-80
2022/10/17 09:49:46;;;;;;;11.75;6.47;;;17.50;99.90;;;;;;5038414;28;20045;-80
2022/10/17 09:52:29;;;;;;;10.13;6.65;;;17.60;99.90;;;;;;5055433;28;20436;-77
2022/10/17 09:55:03;;;;;;;10.70;6.43;;;17.60;99.90;;;;;;5055245;28;20044;-77
2022/10/17 09:57:58;;;;;;;7.30;5.72;;;17.60;99.90;;;;;;5060869;28;20083;-78
2022/10/17 10:00:33;;;;;;;11.63;6.00;;;17.70;99.90;;;;;;5065947;28;20037;-79
2022/10/17 10:03:21;;;;;;;6.75;5.78;;;17.70;99.90;;;;;;5054031;28;20045;-80
2022/10/17 10:06:00;;;;;;;7.10;5.97;;;17.70;99.90;;;;;;5055069;28;20041;-80
2022/10/17 10:08:30;;;;;;;13.50;6.80;;;17.70;99.90;;;;;;5055206;28;20050;-77
2022/10/17 10:11:03;;;;;;;9.65;6.70;;;17.60;99.90;;;;;;5063706;28;20517;-79
2022/10/17 10:13:31;;;;;;;9.52;6.95;;;17.50;99.90;;;;;;5059309;28;20067;-77
2022/10/17 10:16:14;;;;;;;9.13;7.25;;;17.40;99.90;;;;;;5062474;28;20049;-76
2022/10/17 10:18:40;;;;;;;11.23;7.50;;;17.30;99.90;;;;;;5063344;28;20132;-80
2022/10/17 10:21:10;;;;;;;11.53;8.13;;;17.30;99.90;;;;;;5055390;28;20497;-78
2022/10/17 10:23:39;;;;;;;10.57;8.00;;;17.20;99.90;;;;;;5074748;28;20123;-83
2022/10/17 10:26:18;;;;;;;10.98;7.72;;;17.00;99.90;;;;;;5074250;28;20523;-81
2022/10/17 10:28:55;;;;;;;10.35;7.85;;;17.10;99.90;;;;;;5074993;28;20424;-81
2022/10/17 10:31:30;;;;;;;10.30;8.52;;;17.00;99.90;;;;;;5074559;28;20044;-80
2022/10/17 10:34:00;;;;;;;12.18;8.15;;;17.00;99.90;;;;;;5074514;28;20040;-81
2022/10/17 10:36:40;;;;;;;9.02;7.57;;;16.90;99.90;;;;;;5082684;28;20044;-82
2022/10/17 10:39:14;;;;;;;9.10;8.02;;;16.80;99.90;;;;;;5073370;28;20049;-77
2022/10/17 10:41:47;;;;;;;12.55;9.00;;;16.80;99.90;;;;;;5074844;28;20051;-78
2022/10/17 10:44:14;;;;;;;9.93;8.35;;;16.80;99.90;;;;;;5074306;28;20048;-79
2022/10/17 10:46:40;;;;;;;14.15;9.93;;;16.70;99.90;;;;;;5074405;28;20060;-75
2022/10/17 10:49:30;;;;;;;13.27;9.63;;;16.70;99.90;;;;;;5072904;28;20499;-80
2022/10/17 10:51:59;;;;;;;13.68;9.20;;;16.60;99.90;;;;;;5073480;28;20089;-81
2022/10/17 10:54:30;;;;;;;11.02;8.88;;;16.60;99.90;;;;;;5074189;28;20048;-79
2022/10/17 10:56:59;;;;;;;13.80;11.02;;;16.30;99.90;;;;;;5072953;28;20048;-81
2022/10/17 10:59:31;;;;;;;14.70;10.82;;;16.60;99.90;;;;;;5056104;28;20044;-81
2022/10/17 11:02:19;;;;;;;13.95;11.63;;;17.00;99.90;;;;;;5065203;28;20488;-79
2022/10/17 11:05:04;;;;;;;17.27;12.45;;;16.50;99.90;;;;;;5053854;28;20041;-75
2022/10/17 11:07:39;;;;;;;13.43;11.40;;;16.50;99.90;;;;;;5037960;28;20503;-78
2022/10/17 11:10:23;;;;;;;17.33;12.07;;;16.50;99.90;;;;;;5054079;28;20056;-81
2022/10/17 11:12:58;;;;;;;14.98;11.70;;;16.50;99.90;;;;;;5053105;28;20041;-80
2022/10/17 11:15:30;;;;;;;13.10;11.52;;;16.50;99.90;;;;;;5053755;28;20037;-80
2022/10/17 11:18:05;;;;;;;13.77;11.57;;;16.50;99.90;;;;;;5053234;28;20749;-80
2022/10/17 11:20:50;;;;;;;13.13;11.05;;;16.50;99.90;;;;;;5035932;28;20079;-80
2022/10/17 11:23:44;;;;;;;12.88;11.02;;;16.50;99.90;;;;;;5036985;28;20102;-84
2022/10/17 11:26:27;;;;;;;14.77;12.02;;;16.50;99.90;;;;;;5053344;28;20098;-81
2022/10/17 11:28:55;;;;;;;12.15;10.77;;;16.60;99.90;;;;;;5053290;28;20443;-85
2022/10/17 11:31:25;;;;;;;14.88;11.05;;;16.60;99.90;;;;;;5036017;28;20075;-80
2022/10/17 11:33:58;;;;;;;13.18;10.93;;;16.60;99.90;;;;;;5036143;28;20045;-82
2022/10/17 11:36:28;;;;;;;11.00;9.88;;;16.60;99.90;;;;;;5053458;28;20045;-81
2022/10/17 11:39:02;;;;;;;13.73;10.45;;;16.50;99.90;;;;;;5065869;28;20091;-80
2022/10/17 11:41:42;;;;;;;13.48;11.13;;;16.60;99.90;;;;;;5073654;28;20048;-80
2022/10/17 11:44:34;;;;;;;12.88;10.82;;;16.60;99.90;;;;;;5073730;28;20044;-78
2022/10/17 11:47:04;;;;;;;12.30;10.95;;;16.60;99.90;;;;;;5073520;28;20045;-79
2022/10/17 11:49:36;;;;;;;12.13;10.27;;;16.70;99.90;;;;;;5073874;28;20052;-79
2022/10/17 11:52:15;;;;;;;13.88;10.50;;;16.70;99.90;;;;;;5073480;28;20407;-80
2022/10/17 11:54:47;;;;;;;11.25;9.95;;;16.60;99.90;;;;;;5072847;28;20052;-80
2022/10/17 11:57:25;;;;;;;11.73;8.77;;;16.60;99.90;;;;;;5073417;28;20041;-80
2022/10/17 12:00:52;;;;;;;9.70;8.25;;;16.60;99.90;;;;;;5073499;28;20401;-82
2022/10/17 12:03:45;;;;;;;9.00;7.97;;;16.60;99.90;;;;;;5025629;28;20061;-80
2022/10/17 12:06:49;;;;;;;9.40;8.50;;;16.60;99.90;;;;;;5031384;28;20056;-81
2022/10/17 12:09:24;;;;;;;8.90;7.90;;;16.60;99.90;;;;;;5073706;28;20070;-82
2022/10/17 12:11:54;;;;;;;10.52;8.45;;;16.60;99.90;;;;;;5074107;28;20080;-81
2022/10/17 12:14:40;;;;;;;8.80;7.88;;;16.30;99.90;;;;;;5073641;28;20127;-81
2022/10/17 12:17:21;;;;;;;10.00;8.52;;;16.50;99.90;;;;;;5072630;28;20392;-79
2022/10/17 12:19:47;;;;;;;7.82;7.03;;;16.60;99.90;;;;;;5073415;28;20052;-80
2022/10/17 12:22:24;;;;;;;10.00;7.50;;;16.50;99.90;;;;;;5072304;28;20041;-82
2022/10/17 12:24:58;;;;;;;10.60;7.60;;;16.50;99.90;;;;;;5071831;28;20504;-82
2022/10/17 12:27:29;;;;;;;8.55;7.38;;;16.20;99.90;;;;;;5075782;28;20094;-79
2022/10/17 12:30:04;;;;;;;7.97;7.03;;;16.90;99.90;;;;;;5076163;28;20048;-80
2022/10/17 12:32:30;;;;;;;9.80;7.22;;;16.40;99.90;;;;;;5077657;28;20040;-78
2022/10/17 12:34:56;;;;;;;7.22;6.53;;;16.60;99.90;;;;;;5076733;28;20396;-84
2022/10/17 12:37:48;;;;;;;7.70;7.00;;;16.60;99.90;;;;;;5076641;28;20041;-83
2022/10/17 12:40:35;;;;;;;7.45;6.70;;;16.80;99.90;;;;;;5076809;28;20053;-81
2022/10/17 12:43:13;;;;;;;7.72;7.03;;;16.60;99.90;;;;;;5077499;28;20048;-82
2022/10/17 12:45:51;;;;;;;;;;;16.70;99.90;;;;;;5076042;28;20464;-82
2022/10/17 12:48:35;;;;;;;7.38;6.20;;;16.80;99.90;;;;;;5076949;28;19920;-79
2022/10/17 12:51:12;;;;;;;7.35;6.45;;;16.80;99.90;;;;;;5076110;28;20124;-78
2022/10/17 12:53:56;;;;;;;6.82;6.18;;;16.80;99.90;;;;;;5076462;28;20430;-82
2022/10/17 12:56:38;;;;;;;6.93;5.75;;;16.90;99.90;;;;;;5074929;28;20131;-80
2022/10/17 12:59:17;;;;;;;6.80;6.10;;;17.00;99.90;;;;;;5058618;28;20083;-79